sensor_id;sensor_type;location;lat;lon;timestamp;pressure;altitude;pressure_sealevel;temperature;humidity
59435;BME280;45241;49.768;8.636;2022-12-04T00:00:48;100078.59;;;6.19;77.97
59435;BME280;45241;49.768;8.636;2022-12-04T00:03:13;100075.81;;;5.38;79.74
59435;BME280;45241;49.768;8.636;2022-12-04T00:05:38;100083.16;;;5.52;80.88
59435;BME280;45241;49.768;8.636;2022-12-04T00:08:03;100083.91;;;5.20;81.66
59435;BME280;45241;49.768;8.636;2022-12-04T00:10:28;100078.47;;;5.30;81.65
59435;BME280;45241;49.768;8.636;2022-12-04T00:12:54;100073.16;;;5.30;81.61
59435;BME280;45241;49.768;8.636;2022-12-04T00:15:19;100070.59;;;6.03;78.73
59435;BME280;45241;49.768;8.636;2022-12-04T00:17:47;100073.44;;;6.01;79.13
59435;BME280;45241;49.768;8.636;2022-12-04T00:20:12;100078.53;;;5.12;84.07
59435;BME280;45241;49.768;8.636;2022-12-04T00:22:37;100087.06;;;5.15;82.63
59435;BME280;45241;49.768;8.636;2022-12-04T00:25:03;100085.50;;;5.63;81.48
59435;BME280;45241;49.768;8.636;2022-12-04T00:27:28;100085.63;;;4.95;82.33
59435;BME280;45241;49.768;8.636;2022-12-04T00:29:54;100076.59;;;5.97;79.04
59435;BME280;45241;49.768;8.636;2022-12-04T00:32:19;100076.88;;;5.61;79.35
59435;BME280;45241;49.768;8.636;2022-12-04T00:34:44;100069.31;;;5.32;80.77
59435;BME280;45241;49.768;8.636;2022-12-04T00:37:09;100076.72;;;5.63;79.91
59435;BME280;45241;49.768;8.636;2022-12-04T00:39:36;100071.72;;;5.60;79.20
59435;BME280;45241;49.768;8.636;2022-12-04T00:42:01;100078.91;;;6.00;78.19
59435;BME280;45241;49.768;8.636;2022-12-04T00:44:27;100065.75;;;5.58;80.28
59435;BME280;45241;49.768;8.636;2022-12-04T00:46:52;100057.13;;;5.72;80.49
59435;BME280;45241;49.768;8.636;2022-12-04T00:49:17;100068.19;;;5.51;80.72
59435;BME280;45241;49.768;8.636;2022-12-04T00:51:42;100062.94;;;5.09;81.56
59435;BME280;45241;49.768;8.636;2022-12-04T00:54:07;100062.81;;;5.27;80.89
59435;BME280;45241;49.768;8.636;2022-12-04T00:56:32;100055.50;;;5.20;83.55
59435;BME280;45241;49.768;8.636;2022-12-04T00:58:58;100070.44;;;5.21;81.71
59435;BME280;45241;49.768;8.636;2022-12-04T01:01:25;100065.00;;;5.31;82.69
59435;BME280;45241;49.768;8.636;2022-12-04T01:03:50;100080.56;;;4.76;84.14
59435;BME280;45241;49.768;8.636;2022-12-04T01:06:23;100076.66;;;4.96;83.10
59435;BME280;45241;49.768;8.636;2022-12-04T01:08:48;100062.09;;;5.59;81.50
59435;BME280;45241;49.768;8.636;2022-12-04T01:11:14;100062.34;;;5.31;80.92
59435;BME280;45241;49.768;8.636;2022-12-04T01:13:39;100064.25;;;5.63;79.33
59435;BME280;45241;49.768;8.636;2022-12-04T01:16:04;100055.75;;;5.43;81.39
59435;BME280;45241;49.768;8.636;2022-12-04T01:18:30;100056.19;;;5.31;81.12
59435;BME280;45241;49.768;8.636;2022-12-04T01:20:55;100065.78;;;5.15;81.84
59435;BME280;45241;49.768;8.636;2022-12-04T01:23:20;100049.84;;;5.23;80.64
59435;BME280;45241;49.768;8.636;2022-12-04T01:25:49;100045.59;;;4.97;81.61
59435;BME280;45241;49.768;8.636;2022-12-04T01:28:15;100037.34;;;5.08;83.95
59435;BME280;45241;49.768;8.636;2022-12-04T01:30:40;100040.25;;;5.39;82.21
59435;BME280;45241;49.768;8.636;2022-12-04T01:33:05;100038.44;;;5.39;80.00
59435;BME280;45241;49.768;8.636;2022-12-04T01:35:31;100045.81;;;5.03;82.11
59435;BME280;45241;49.768;8.636;2022-12-04T01:37:56;100046.75;;;5.52;81.34
59435;BME280;45241;49.768;8.636;2022-12-04T01:40:21;100035.59;;;5.33;81.72
59435;BME280;45241;49.768;8.636;2022-12-04T01:42:46;100045.09;;;4.93;83.33
59435;BME280;45241;49.768;8.636;2022-12-04T01:47:49;100067.63;;;4.81;84.61
59435;BME280;45241;49.768;8.636;2022-12-04T01:50:16;100063.28;;;5.89;80.60
59435;BME280;45241;49.768;8.636;2022-12-04T01:52:41;100060.56;;;5.48;78.95
59435;BME280;45241;49.768;8.636;2022-12-04T01:55:07;100068.91;;;5.69;79.53
59435;BME280;45241;49.768;8.636;2022-12-04T01:57:32;100060.47;;;5.82;79.59
59435;BME280;45241;49.768;8.636;2022-12-04T02:00:00;100063.47;;;5.95;79.37
59435;BME280;45241;49.768;8.636;2022-12-04T02:02:31;100050.91;;;5.47;78.98
59435;BME280;45241;49.768;8.636;2022-12-04T02:04:58;100043.13;;;4.95;82.15
59435;BME280;45241;49.768;8.636;2022-12-04T02:07:24;100050.94;;;5.63;80.24
59435;BME280;45241;49.768;8.636;2022-12-04T02:09:49;100044.66;;;5.80;78.96
59435;BME280;45241;49.768;8.636;2022-12-04T02:12:32;100054.28;;;5.90;79.95
59435;BME280;45241;49.768;8.636;2022-12-04T02:17:52;100054.94;;;5.75;81.05
59435;BME280;45241;49.768;8.636;2022-12-04T02:30:56;100049.94;;;5.64;80.57
59435;BME280;45241;49.768;8.636;2022-12-04T02:33:25;100058.91;;;5.63;79.57
59435;BME280;45241;49.768;8.636;2022-12-04T02:35:52;100051.31;;;6.01;78.08
59435;BME280;45241;49.768;8.636;2022-12-04T02:38:26;100055.47;;;6.11;78.39
59435;BME280;45241;49.768;8.636;2022-12-04T02:41:00;100053.31;;;5.99;78.87
59435;BME280;45241;49.768;8.636;2022-12-04T02:46:16;100064.28;;;6.12;78.94
59435;BME280;45241;49.768;8.636;2022-12-04T02:48:44;100052.06;;;5.36;80.95
59435;BME280;45241;49.768;8.636;2022-12-04T02:51:11;100059.59;;;5.65;79.09
59435;BME280;45241;49.768;8.636;2022-12-04T02:53:43;100051.97;;;6.11;79.32
59435;BME280;45241;49.768;8.636;2022-12-04T02:56:12;100060.38;;;5.41;81.29
59435;BME280;45241;49.768;8.636;2022-12-04T02:58:43;100057.19;;;5.30;80.95
59435;BME280;45241;49.768;8.636;2022-12-04T03:01:11;100062.47;;;5.96;79.45
59435;BME280;45241;49.768;8.636;2022-12-04T03:06:19;100062.63;;;6.11;79.97
59435;BME280;45241;49.768;8.636;2022-12-04T03:08:47;100062.97;;;6.08;78.26
59435;BME280;45241;49.768;8.636;2022-12-04T03:11:13;100056.66;;;5.93;79.36
59435;BME280;45241;49.768;8.636;2022-12-04T03:13:42;100052.97;;;5.69;80.43
59435;BME280;45241;49.768;8.636;2022-12-04T03:16:19;100049.47;;;6.18;79.54
59435;BME280;45241;49.768;8.636;2022-12-04T03:19:06;100045.78;;;5.62;78.90
59435;BME280;45241;49.768;8.636;2022-12-04T03:21:34;100035.50;;;6.16;79.53
59435;BME280;45241;49.768;8.636;2022-12-04T03:26:31;100038.34;;;5.07;81.58
59435;BME280;45241;49.768;8.636;2022-12-04T03:31:39;100030.19;;;5.75;82.35
59435;BME280;45241;49.768;8.636;2022-12-04T03:34:06;100030.69;;;6.11;79.07
59435;BME280;45241;49.768;8.636;2022-12-04T03:36:35;100032.03;;;5.99;80.24
59435;BME280;45241;49.768;8.636;2022-12-04T03:39:10;100033.94;;;5.32;82.25
59435;BME280;45241;49.768;8.636;2022-12-04T03:44:13;100021.28;;;5.17;83.12
59435;BME280;45241;49.768;8.636;2022-12-04T03:46:48;100017.56;;;5.69;82.41
59435;BME280;45241;49.768;8.636;2022-12-04T03:49:17;100018.22;;;6.20;80.00
59435;BME280;45241;49.768;8.636;2022-12-04T03:51:45;100012.06;;;5.62;81.04
59435;BME280;45241;49.768;8.636;2022-12-04T03:54:22;100012.47;;;5.25;82.25
59435;BME280;45241;49.768;8.636;2022-12-04T03:56:52;100009.03;;;5.33;83.19
59435;BME280;45241;49.768;8.636;2022-12-04T03:59:21;99996.13;;;5.70;82.29
59435;BME280;45241;49.768;8.636;2022-12-04T04:01:48;100007.75;;;5.53;81.93
59435;BME280;45241;49.768;8.636;2022-12-04T04:04:17;100007.91;;;5.68;81.39
59435;BME280;45241;49.768;8.636;2022-12-04T04:06:45;100011.53;;;5.50;83.54
59435;BME280;45241;49.768;8.636;2022-12-04T04:09:14;100005.75;;;6.12;80.14
59435;BME280;45241;49.768;8.636;2022-12-04T04:11:44;100004.75;;;5.64;81.59
59435;BME280;45241;49.768;8.636;2022-12-04T04:14:16;100010.22;;;6.03;80.21
59435;BME280;45241;49.768;8.636;2022-12-04T04:17:03;100002.78;;;5.82;80.67
59435;BME280;45241;49.768;8.636;2022-12-04T04:19:49;100003.94;;;5.72;82.02
59435;BME280;45241;49.768;8.636;2022-12-04T04:22:36;100008.06;;;6.15;80.52
59435;BME280;45241;49.768;8.636;2022-12-04T04:25:21;100006.75;;;6.11;78.74
59435;BME280;45241;49.768;8.636;2022-12-04T04:27:51;99998.41;;;5.65;80.77
59435;BME280;45241;49.768;8.636;2022-12-04T04:30:17;100012.25;;;5.93;80.92
59435;BME280;45241;49.768;8.636;2022-12-04T04:35:10;100008.75;;;5.84;82.19
59435;BME280;45241;49.768;8.636;2022-12-04T04:40:06;100005.41;;;5.58;83.18
59435;BME280;45241;49.768;8.636;2022-12-04T04:42:36;100017.38;;;5.54;82.18
59435;BME280;45241;49.768;8.636;2022-12-04T04:45:22;100005.22;;;5.51;83.15
59435;BME280;45241;49.768;8.636;2022-12-04T04:48:01;99998.91;;;5.52;83.11
59435;BME280;45241;49.768;8.636;2022-12-04T04:50:28;100004.94;;;5.79;84.03
59435;BME280;45241;49.768;8.636;2022-12-04T04:52:55;99990.31;;;5.00;85.19
59435;BME280;45241;49.768;8.636;2022-12-04T04:55:23;99995.22;;;5.37;85.44
59435;BME280;45241;49.768;8.636;2022-12-04T04:57:48;99996.78;;;5.72;84.02
59435;BME280;45241;49.768;8.636;2022-12-04T05:00:14;99998.44;;;5.81;82.75
59435;BME280;45241;49.768;8.636;2022-12-04T05:02:40;99992.44;;;5.55;85.05
59435;BME280;45241;49.768;8.636;2022-12-04T05:05:05;99998.41;;;5.65;82.81
59435;BME280;45241;49.768;8.636;2022-12-04T05:07:31;99987.44;;;5.52;82.69
59435;BME280;45241;49.768;8.636;2022-12-04T05:09:56;99996.59;;;5.49;83.88
59435;BME280;45241;49.768;8.636;2022-12-04T05:12:21;100001.66;;;5.02;86.16
59435;BME280;45241;49.768;8.636;2022-12-04T05:14:47;100009.06;;;5.41;84.61
59435;BME280;45241;49.768;8.636;2022-12-04T05:17:12;100001.59;;;5.69;82.25
59435;BME280;45241;49.768;8.636;2022-12-04T05:19:37;99999.59;;;5.63;83.31
59435;BME280;45241;49.768;8.636;2022-12-04T05:22:22;100006.41;;;5.65;84.24
59435;BME280;45241;49.768;8.636;2022-12-04T05:24:47;100007.41;;;5.89;83.68
59435;BME280;45241;49.768;8.636;2022-12-04T05:27:13;100001.25;;;5.64;84.96
59435;BME280;45241;49.768;8.636;2022-12-04T05:29:38;99998.44;;;5.57;83.11
59435;BME280;45241;49.768;8.636;2022-12-04T05:32:03;100008.22;;;5.65;84.84
59435;BME280;45241;49.768;8.636;2022-12-04T05:34:29;100021.22;;;5.68;83.17
59435;BME280;45241;49.768;8.636;2022-12-04T05:36:54;100013.69;;;5.47;84.44
59435;BME280;45241;49.768;8.636;2022-12-04T05:39:19;100012.91;;;5.71;84.17
59435;BME280;45241;49.768;8.636;2022-12-04T05:41:44;100006.75;;;5.70;82.26
59435;BME280;45241;49.768;8.636;2022-12-04T05:44:10;100008.25;;;5.81;82.26
59435;BME280;45241;49.768;8.636;2022-12-04T05:46:35;100010.75;;;5.99;83.03
59435;BME280;45241;49.768;8.636;2022-12-04T05:49:00;100011.56;;;5.59;85.47
59435;BME280;45241;49.768;8.636;2022-12-04T05:51:26;100013.06;;;6.18;81.60
59435;BME280;45241;49.768;8.636;2022-12-04T05:53:51;100014.41;;;5.98;83.04
59435;BME280;45241;49.768;8.636;2022-12-04T05:56:16;100020.38;;;6.00;82.99
59435;BME280;45241;49.768;8.636;2022-12-04T05:58:42;100021.69;;;6.28;81.37
59435;BME280;45241;49.768;8.636;2022-12-04T06:01:16;100015.38;;;5.89;83.05
59435;BME280;45241;49.768;8.636;2022-12-04T06:03:42;100014.69;;;6.27;81.53
59435;BME280;45241;49.768;8.636;2022-12-04T06:06:14;100015.53;;;6.03;82.61
59435;BME280;45241;49.768;8.636;2022-12-04T06:08:40;100019.56;;;5.67;84.21
59435;BME280;45241;49.768;8.636;2022-12-04T06:11:09;100024.38;;;6.04;82.02
59435;BME280;45241;49.768;8.636;2022-12-04T06:13:34;100019.50;;;5.34;85.61
59435;BME280;45241;49.768;8.636;2022-12-04T06:15:59;100027.03;;;5.96;82.29
59435;BME280;45241;49.768;8.636;2022-12-04T06:18:24;100020.34;;;6.16;81.92
59435;BME280;45241;49.768;8.636;2022-12-04T06:20:49;100023.88;;;5.84;83.97
59435;BME280;45241;49.768;8.636;2022-12-04T06:23:15;100019.53;;;5.75;85.53
59435;BME280;45241;49.768;8.636;2022-12-04T06:25:40;100027.34;;;6.25;83.22
59435;BME280;45241;49.768;8.636;2022-12-04T06:28:05;100013.69;;;6.28;83.18
59435;BME280;45241;49.768;8.636;2022-12-04T06:30:32;100018.03;;;6.21;81.75
59435;BME280;45241;49.768;8.636;2022-12-04T06:32:57;100025.53;;;6.01;81.97
59435;BME280;45241;49.768;8.636;2022-12-04T06:35:22;100021.03;;;6.10;83.20
59435;BME280;45241;49.768;8.636;2022-12-04T06:37:47;100026.88;;;5.73;84.24
59435;BME280;45241;49.768;8.636;2022-12-04T06:40:13;100018.06;;;5.97;83.66
59435;BME280;45241;49.768;8.636;2022-12-04T06:42:38;100030.03;;;6.01;82.81
59435;BME280;45241;49.768;8.636;2022-12-04T06:45:03;100020.84;;;6.28;82.75
59435;BME280;45241;49.768;8.636;2022-12-04T06:47:29;100014.81;;;6.42;81.75
59435;BME280;45241;49.768;8.636;2022-12-04T06:49:54;100020.66;;;5.32;86.29
59435;BME280;45241;49.768;8.636;2022-12-04T06:52:19;100021.53;;;4.90;89.77
59435;BME280;45241;49.768;8.636;2022-12-04T06:54:44;100024.03;;;6.23;84.80
59435;BME280;45241;49.768;8.636;2022-12-04T06:57:10;100017.56;;;5.69;84.12
59435;BME280;45241;49.768;8.636;2022-12-04T06:59:35;100012.66;;;5.23;88.16
59435;BME280;45241;49.768;8.636;2022-12-04T07:02:00;100009.75;;;6.08;84.77
59435;BME280;45241;49.768;8.636;2022-12-04T07:04:25;100006.06;;;6.09;85.13
59435;BME280;45241;49.768;8.636;2022-12-04T07:06:50;100002.09;;;5.56;86.40
59435;BME280;45241;49.768;8.636;2022-12-04T07:09:16;100002.25;;;5.71;87.06
59435;BME280;45241;49.768;8.636;2022-12-04T07:11:42;100005.91;;;5.53;85.88
59435;BME280;45241;49.768;8.636;2022-12-04T07:14:07;100003.41;;;5.76;86.38
59435;BME280;45241;49.768;8.636;2022-12-04T07:16:33;100005.44;;;5.66;87.11
59435;BME280;45241;49.768;8.636;2022-12-04T07:18:58;100004.91;;;6.11;84.07
59435;BME280;45241;49.768;8.636;2022-12-04T07:21:25;100014.38;;;5.41;86.59
59435;BME280;45241;49.768;8.636;2022-12-04T07:23:51;100010.59;;;5.68;87.52
59435;BME280;45241;49.768;8.636;2022-12-04T07:26:16;100001.91;;;5.90;86.88
59435;BME280;45241;49.768;8.636;2022-12-04T07:28:42;100003.09;;;5.88;85.43
59435;BME280;45241;49.768;8.636;2022-12-04T07:31:10;100004.56;;;6.23;84.82
59435;BME280;45241;49.768;8.636;2022-12-04T07:33:35;100005.78;;;5.79;87.47
59435;BME280;45241;49.768;8.636;2022-12-04T07:36:02;99999.44;;;5.72;87.34
59435;BME280;45241;49.768;8.636;2022-12-04T07:38:28;100004.56;;;5.90;84.95
59435;BME280;45241;49.768;8.636;2022-12-04T07:40:57;100005.72;;;6.04;85.92
59435;BME280;45241;49.768;8.636;2022-12-04T07:43:22;100015.22;;;5.98;87.32
59435;BME280;45241;49.768;8.636;2022-12-04T07:45:48;100017.56;;;5.69;87.21
59435;BME280;45241;49.768;8.636;2022-12-04T07:48:13;100015.34;;;5.32;89.02
59435;BME280;45241;49.768;8.636;2022-12-04T07:50:38;100026.06;;;6.05;86.50
59435;BME280;45241;49.768;8.636;2022-12-04T07:53:03;100021.72;;;6.12;85.89
59435;BME280;45241;49.768;8.636;2022-12-04T07:55:28;100029.84;;;5.70;88.06
59435;BME280;45241;49.768;8.636;2022-12-04T07:57:54;100029.06;;;5.11;90.37
59435;BME280;45241;49.768;8.636;2022-12-04T08:00:19;100035.03;;;5.96;86.75
59435;BME280;45241;49.768;8.636;2022-12-04T08:02:44;100032.00;;;5.74;88.38
59435;BME280;45241;49.768;8.636;2022-12-04T08:05:09;100043.50;;;5.99;87.77
59435;BME280;45241;49.768;8.636;2022-12-04T08:07:34;100041.97;;;6.46;84.44
59435;BME280;45241;49.768;8.636;2022-12-04T08:10:00;100039.00;;;6.16;85.13
59435;BME280;45241;49.768;8.636;2022-12-04T08:12:25;100030.81;;;6.50;84.48
59435;BME280;45241;49.768;8.636;2022-12-04T08:14:50;100031.38;;;5.80;86.49
59435;BME280;45241;49.768;8.636;2022-12-04T08:17:15;100027.03;;;5.96;85.68
59435;BME280;45241;49.768;8.636;2022-12-04T08:19:41;100027.19;;;6.02;86.72
59435;BME280;45241;49.768;8.636;2022-12-04T08:22:06;100016.56;;;5.70;89.77
59435;BME280;45241;49.768;8.636;2022-12-04T08:24:31;100019.88;;;5.56;88.97
59435;BME280;45241;49.768;8.636;2022-12-04T08:26:56;100014.72;;;5.78;89.87
59435;BME280;45241;49.768;8.636;2022-12-04T08:29:21;100006.41;;;6.06;85.32
59435;BME280;45241;49.768;8.636;2022-12-04T08:31:47;100017.91;;;6.06;87.56
59435;BME280;45241;49.768;8.636;2022-12-04T08:34:12;100022.03;;;5.68;90.32
59435;BME280;45241;49.768;8.636;2022-12-04T08:36:38;100031.19;;;5.74;93.56
59435;BME280;45241;49.768;8.636;2022-12-04T08:39:03;100027.22;;;5.94;89.72
59435;BME280;45241;49.768;8.636;2022-12-04T08:41:28;100029.19;;;5.60;90.03
59435;BME280;45241;49.768;8.636;2022-12-04T08:43:54;100012.22;;;5.44;91.14
59435;BME280;45241;49.768;8.636;2022-12-04T08:46:19;100004.94;;;5.79;90.49
59435;BME280;45241;49.768;8.636;2022-12-04T08:48:45;100007.88;;;5.43;90.25
59435;BME280;45241;49.768;8.636;2022-12-04T08:51:14;100011.53;;;5.50;90.17
59435;BME280;45241;49.768;8.636;2022-12-04T08:53:39;100007.41;;;5.56;89.25
59435;BME280;45241;49.768;8.636;2022-12-04T08:56:05;100010.06;;;5.89;87.83
59435;BME280;45241;49.768;8.636;2022-12-04T08:58:30;100017.22;;;5.88;87.02
59435;BME280;45241;49.768;8.636;2022-12-04T09:00:55;100018.38;;;5.77;89.19
59435;BME280;45241;49.768;8.636;2022-12-04T09:03:21;100016.75;;;5.93;88.75
59435;BME280;45241;49.768;8.636;2022-12-04T09:05:46;100022.69;;;5.62;90.57
59435;BME280;45241;49.768;8.636;2022-12-04T09:08:12;100019.38;;;6.09;88.70
59435;BME280;45241;49.768;8.636;2022-12-04T09:10:38;100024.88;;;6.07;85.82
59435;BME280;45241;49.768;8.636;2022-12-04T09:13:03;100029.84;;;6.10;87.43
59435;BME280;45241;49.768;8.636;2022-12-04T09:15:28;100033.69;;;5.67;88.41
59435;BME280;45241;49.768;8.636;2022-12-04T09:17:54;100025.88;;;5.98;88.21
59435;BME280;45241;49.768;8.636;2022-12-04T09:20:19;100020.06;;;5.95;87.48
59435;BME280;45241;49.768;8.636;2022-12-04T09:22:44;100024.19;;;6.22;85.92
59435;BME280;45241;49.768;8.636;2022-12-04T09:25:09;100025.84;;;6.31;88.29
59435;BME280;45241;49.768;8.636;2022-12-04T09:27:36;100022.53;;;6.21;87.41
59435;BME280;45241;49.768;8.636;2022-12-04T09:30:02;100014.28;;;6.63;84.57
59435;BME280;45241;49.768;8.636;2022-12-04T09:32:27;100015.53;;;6.28;85.60
59435;BME280;45241;49.768;8.636;2022-12-04T09:34:52;100014.88;;;6.18;86.19
59435;BME280;45241;49.768;8.636;2022-12-04T09:37:17;100014.75;;;5.95;86.22
59435;BME280;45241;49.768;8.636;2022-12-04T09:39:44;100013.38;;;5.91;87.92
59435;BME280;45241;49.768;8.636;2022-12-04T09:42:19;100024.38;;;5.88;88.41
59435;BME280;45241;49.768;8.636;2022-12-04T09:44:56;100024.56;;;5.94;88.38
59435;BME280;45241;49.768;8.636;2022-12-04T09:47:27;100031.69;;;5.86;87.66
59435;BME280;45241;49.768;8.636;2022-12-04T09:49:55;100029.34;;;5.58;90.80
59435;BME280;45241;49.768;8.636;2022-12-04T09:52:24;100022.66;;;6.43;85.63
59435;BME280;45241;49.768;8.636;2022-12-04T09:54:55;100014.56;;;5.72;87.95
59435;BME280;45241;49.768;8.636;2022-12-04T09:57:23;100017.34;;;6.35;86.87
59435;BME280;45241;49.768;8.636;2022-12-04T09:59:49;100021.03;;;6.26;87.20
59435;BME280;45241;49.768;8.636;2022-12-04T10:02:26;100020.38;;;6.24;87.31
59435;BME280;45241;49.768;8.636;2022-12-04T10:04:55;100016.88;;;5.91;88.48
59435;BME280;45241;49.768;8.636;2022-12-04T10:12:14;100004.22;;;6.18;88.02
59435;BME280;45241;49.768;8.636;2022-12-04T10:15:19;99997.78;;;5.79;89.26
59435;BME280;45241;49.768;8.636;2022-12-04T10:25:33;99987.59;;;6.24;88.48
59435;BME280;45241;49.768;8.636;2022-12-04T10:30:34;99996.09;;;6.03;89.49
59435;BME280;45241;49.768;8.636;2022-12-04T10:33:12;99985.44;;;6.03;89.36
59435;BME280;45241;49.768;8.636;2022-12-04T10:35:41;99991.63;;;5.54;91.31
59435;BME280;45241;49.768;8.636;2022-12-04T10:38:10;99986.47;;;5.77;91.69
59435;BME280;45241;49.768;8.636;2022-12-04T10:40:45;99980.16;;;5.87;89.50
59435;BME280;45241;49.768;8.636;2022-12-04T10:43:32;99969.47;;;6.11;92.05
59435;BME280;45241;49.768;8.636;2022-12-04T10:46:00;99970.81;;;5.91;90.15
59435;BME280;45241;49.768;8.636;2022-12-04T10:48:30;99972.44;;;6.24;88.19
59435;BME280;45241;49.768;8.636;2022-12-04T10:50:56;99970.50;;;5.77;90.35
59435;BME280;45241;49.768;8.636;2022-12-04T10:53:23;99969.25;;;6.45;87.38
59435;BME280;45241;49.768;8.636;2022-12-04T10:55:51;99965.47;;;6.23;90.02
59435;BME280;45241;49.768;8.636;2022-12-04T10:58:17;99959.56;;;6.52;87.25
59435;BME280;45241;49.768;8.636;2022-12-04T11:00:43;99963.63;;;6.32;87.36
59435;BME280;45241;49.768;8.636;2022-12-04T11:03:21;99956.66;;;6.14;87.40
59435;BME280;45241;49.768;8.636;2022-12-04T11:05:57;99951.72;;;5.95;88.45
59435;BME280;45241;49.768;8.636;2022-12-04T11:11:02;99924.75;;;6.54;88.25
59435;BME280;45241;49.768;8.636;2022-12-04T11:13:29;99923.28;;;6.51;86.52
59435;BME280;45241;49.768;8.636;2022-12-04T11:15:55;99925.28;;;6.49;88.37
59435;BME280;45241;49.768;8.636;2022-12-04T11:18:23;99917.00;;;5.80;90.35
59435;BME280;45241;49.768;8.636;2022-12-04T11:20:52;99920.97;;;5.93;91.25
59435;BME280;45241;49.768;8.636;2022-12-04T11:23:18;99925.22;;;6.18;90.01
59435;BME280;45241;49.768;8.636;2022-12-04T11:25:45;99932.88;;;6.13;90.68
59435;BME280;45241;49.768;8.636;2022-12-04T11:28:15;99936.50;;;6.67;87.55
59435;BME280;45241;49.768;8.636;2022-12-04T11:30:45;99940.03;;;6.21;88.79
59435;BME280;45241;49.768;8.636;2022-12-04T11:33:15;99939.91;;;5.90;90.94
59435;BME280;45241;49.768;8.636;2022-12-04T11:35:42;99944.19;;;6.15;91.34
59435;BME280;45241;49.768;8.636;2022-12-04T11:38:15;99944.47;;;6.36;89.32
59435;BME280;45241;49.768;8.636;2022-12-04T11:40:50;99939.28;;;6.43;89.48
59435;BME280;45241;49.768;8.636;2022-12-04T11:43:17;99938.09;;;5.74;94.01
59435;BME280;45241;49.768;8.636;2022-12-04T11:45:59;99934.44;;;5.75;92.94
59435;BME280;45241;49.768;8.636;2022-12-04T11:48:25;99938.75;;;5.51;95.30
59435;BME280;45241;49.768;8.636;2022-12-04T11:51:04;99934.41;;;5.91;94.21
59435;BME280;45241;49.768;8.636;2022-12-04T11:56:04;99947.41;;;5.45;95.83
59435;BME280;45241;49.768;8.636;2022-12-04T12:01:34;99960.22;;;5.82;93.64
59435;BME280;45241;49.768;8.636;2022-12-04T12:06:35;99953.38;;;5.72;96.31
59435;BME280;45241;49.768;8.636;2022-12-04T12:09:07;99958.38;;;5.75;94.36
59435;BME280;45241;49.768;8.636;2022-12-04T12:11:48;99972.47;;;5.92;94.74
59435;BME280;45241;49.768;8.636;2022-12-04T12:14:22;99961.50;;;6.11;95.23
59435;BME280;45241;49.768;8.636;2022-12-04T12:21:46;99954.81;;;6.31;92.25
59435;BME280;45241;49.768;8.636;2022-12-04T12:31:58;99956.88;;;5.80;93.91
59435;BME280;45241;49.768;8.636;2022-12-04T12:36:59;99949.59;;;6.46;93.74
59435;BME280;45241;49.768;8.636;2022-12-04T12:39:34;99941.44;;;6.87;90.75
59435;BME280;45241;49.768;8.636;2022-12-04T12:42:02;99947.13;;;6.28;93.71
59435;BME280;45241;49.768;8.636;2022-12-04T12:47:24;99942.94;;;6.42;92.18
59435;BME280;45241;49.768;8.636;2022-12-04T12:50:03;99952.81;;;6.33;94.14
59435;BME280;45241;49.768;8.636;2022-12-04T12:52:32;99957.53;;;6.07;96.83
59435;BME280;45241;49.768;8.636;2022-12-04T12:57:45;99950.69;;;6.04;95.61
59435;BME280;45241;49.768;8.636;2022-12-04T13:05:12;99949.19;;;6.02;96.11
59435;BME280;45241;49.768;8.636;2022-12-04T13:07:43;99941.66;;;6.30;95.33
59435;BME280;45241;49.768;8.636;2022-12-04T13:10:17;99929.78;;;5.69;99.93
59435;BME280;45241;49.768;8.636;2022-12-04T13:12:46;99922.69;;;6.25;95.48
59435;BME280;45241;49.768;8.636;2022-12-04T13:15:14;99918.56;;;6.22;94.54
59435;BME280;45241;49.768;8.636;2022-12-04T13:17:39;99904.50;;;6.45;94.61
59435;BME280;45241;49.768;8.636;2022-12-04T13:20:07;99902.66;;;5.98;96.96
59435;BME280;45241;49.768;8.636;2022-12-04T13:22:54;99897.72;;;6.34;93.88
59435;BME280;45241;49.768;8.636;2022-12-04T13:30:51;99894.50;;;5.99;97.38
59435;BME280;45241;49.768;8.636;2022-12-04T13:40:52;99890.72;;;6.72;91.95
59435;BME280;45241;49.768;8.636;2022-12-04T13:45:50;99889.41;;;6.29;93.03
59435;BME280;45241;49.768;8.636;2022-12-04T13:48:30;99893.44;;;6.17;93.91
59435;BME280;45241;49.768;8.636;2022-12-04T13:51:04;99895.44;;;6.14;93.64
59435;BME280;45241;49.768;8.636;2022-12-04T13:53:30;99888.94;;;6.17;93.85
59435;BME280;45241;49.768;8.636;2022-12-04T13:55:56;99892.44;;;6.18;93.40
59435;BME280;45241;49.768;8.636;2022-12-04T13:58:26;99891.66;;;6.01;93.76
59435;BME280;45241;49.768;8.636;2022-12-04T14:00:59;99885.03;;;5.89;92.20
59435;BME280;45241;49.768;8.636;2022-12-04T14:03:33;99885.25;;;6.26;92.97
59435;BME280;45241;49.768;8.636;2022-12-04T14:05:59;99891.72;;;6.71;90.63
59435;BME280;45241;49.768;8.636;2022-12-04T14:08:30;99885.91;;;6.28;90.92
59435;BME280;45241;49.768;8.636;2022-12-04T14:11:04;99887.06;;;6.34;91.89
59435;BME280;45241;49.768;8.636;2022-12-04T14:13:50;99881.59;;;6.27;93.05
59435;BME280;45241;49.768;8.636;2022-12-04T14:16:20;99879.56;;;5.74;93.84
59435;BME280;45241;49.768;8.636;2022-12-04T14:18:51;99876.47;;;6.18;92.35
59435;BME280;45241;49.768;8.636;2022-12-04T14:21:17;99876.72;;;5.92;93.42
59435;BME280;45241;49.768;8.636;2022-12-04T14:23:43;99878.81;;;6.21;91.68
59435;BME280;45241;49.768;8.636;2022-12-04T14:26:22;99879.81;;;6.59;89.88
59435;BME280;45241;49.768;8.636;2022-12-04T14:28:48;99884.00;;;6.06;93.26
59435;BME280;45241;49.768;8.636;2022-12-04T14:31:30;99886.22;;;6.72;89.42
59435;BME280;45241;49.768;8.636;2022-12-04T14:34:01;99886.88;;;5.88;92.00
59435;BME280;45241;49.768;8.636;2022-12-04T14:36:28;99882.03;;;5.92;91.38
59435;BME280;45241;49.768;8.636;2022-12-04T14:39:01;99890.59;;;6.65;89.23
59435;BME280;45241;49.768;8.636;2022-12-04T14:41:27;99894.25;;;6.25;89.14
59435;BME280;45241;49.768;8.636;2022-12-04T14:43:52;99907.31;;;5.96;90.98
59435;BME280;45241;49.768;8.636;2022-12-04T14:59:15;99922.31;;;5.64;94.82
59435;BME280;45241;49.768;8.636;2022-12-04T15:01:41;99921.13;;;5.75;94.11